Time,TemperatureF,DewpointF,PressureIn,WindDirection,WindDirectionDegrees,WindSpeedMPH,WindSpeedGustMPH,Humidity,HourlyPrecipIn,Conditions,Clouds,dailyrainin,SolarRadiationWatts/m^2,SoftwareType,DateUTC
2013-02-24 00:01:00,57.0,21.0,29.98,WSW,249,7.0,14.0,24,-99.99,,,-99.99,0.000000,,2013-02-24 08:01:00,
2013-02-24 00:11:00,57.0,18.0,29.99,West,269,8.0,19.0,22,-99.99,,,-99.99,0.000000,,2013-02-24 08:11:00,
2013-02-24 00:22:00,56.0,17.0,29.99,WSW,252,8.0,23.0,21,-99.99,,,-99.99,0.000000,,2013-02-24 08:22:00,
2013-02-24 00:31:00,56.0,15.0,29.99,WSW,251,6.0,15.0,19,-99.99,,,-99.99,0.000000,,2013-02-24 08:31:00,
2013-02-24 00:41:00,56.0,15.0,29.99,WSW,251,6.0,15.0,19,-99.99,,,-99.99,0.000000,,2013-02-24 08:41:00,
2013-02-24 00:53:00,56.0,13.0,29.99,WSW,256,6.0,18.0,18,-99.99,,,-99.99,0.000000,,2013-02-24 08:53:00,
2013-02-24 01:01:00,55.0,14.0,29.99,SW,227,5.0,10.0,19,-99.99,,,-99.99,0.000000,,2013-02-24 09:01:00,
2013-02-24 01:11:00,55.0,11.0,30.00,SW,227,8.0,15.0,17,-99.99,,,-99.99,0.000000,,2013-02-24 09:11:00,
2013-02-24 01:21:00,55.0,10.0,30.00,WSW,254,6.0,14.0,16,-99.99,,,-99.99,0.000000,,2013-02-24 09:21:00,
2013-02-24 01:30:00,54.0,6.0,30.03,SW,231,6.0,12.0,14,-99.99,,,-99.99,0.000000,,2013-02-24 09:30:00,
2013-02-24 01:31:00,55.0,8.0,30.01,SW,222,8.0,18.0,15,-99.99,,,-99.99,0.000000,,2013-02-24 09:31:00,
2013-02-24 01:41:00,55.0,6.0,30.03,SW,218,9.0,21.0,14,-99.99,,,-99.99,0.000000,,2013-02-24 09:41:00,
2013-02-24 01:51:00,54.0,6.0,30.03,SW,227,6.0,14.0,14,-99.99,,,-99.99,0.000000,,2013-02-24 09:51:00,
2013-02-24 02:01:00,54.0,6.0,30.03,SW,231,6.0,12.0,14,-99.99,,,-99.99,0.000000,,2013-02-24 10:01:00,
2013-02-24 02:11:00,54.0,6.0,30.03,SW,231,6.0,12.0,14,-99.99,,,-99.99,0.000000,,2013-02-24 10:11:00,
2013-02-24 02:21:00,54.0,6.0,30.03,SW,231,6.0,12.0,14,-99.99,,,-99.99,0.000000,,2013-02-24 10:21:00,
2013-02-24 03:01:00,53.0,4.0,30.03,SW,217,8.0,16.0,13,-99.99,,,-99.99,0.000000,,2013-02-24 11:01:00,
2013-02-24 03:11:00,53.0,4.0,30.03,SW,217,8.0,16.0,13,-99.99,,,-99.99,0.000000,,2013-02-24 11:11:00,
2013-02-24 03:20:00,52.0,0.0,30.04,WSW,248,9.0,19.0,11,-99.99,,,-99.99,0.000000,,2013-02-24 11:20:00,
2013-02-24 03:21:00,53.0,4.0,30.03,SW,217,8.0,16.0,13,-99.99,,,-99.99,0.000000,,2013-02-24 11:21:00,
2013-02-24 03:32:00,53.0,2.0,30.02,WSW,253,7.0,14.0,12,-99.99,,,-99.99,0.000000,,2013-02-24 11:32:00,
2013-02-24 03:41:00,52.0,1.0,30.03,SW,227,9.0,17.0,12,-99.99,,,-99.99,0.000000,,2013-02-24 11:41:00,
2013-02-24 03:52:00,52.0,1.0,30.03,SW,227,9.0,17.0,12,-99.99,,,-99.99,0.000000,,2013-02-24 11:52:00,
2013-02-24 04:01:00,52.0,0.0,30.04,WSW,248,9.0,19.0,11,-99.99,,,-99.99,0.000000,,2013-02-24 12:01:00,
2013-02-24 04:11:00,52.0,0.0,30.04,WSW,248,9.0,19.0,11,-99.99,,,-99.99,0.000000,,2013-02-24 12:11:00,
2013-02-24 04:46:00,52.0,-1.0,30.06,WNW,294,6.0,14.0,11,-99.99,,,-99.99,0.000000,,2013-02-24 12:46:00,
2013-02-24 04:55:00,52.0,-1.0,30.06,WNW,294,6.0,14.0,11,-99.99,,,-99.99,0.000000,,2013-02-24 12:55:00,
2013-02-24 05:00:00,51.0,0.0,30.09,SW,221,5.0,10.0,12,-99.99,,,-99.99,0.000000,,2013-02-24 13:00:00,
2013-02-24 05:06:00,52.0,-1.0,30.06,WNW,294,6.0,14.0,11,-99.99,,,-99.99,0.000000,,2013-02-24 13:06:00,
2013-02-24 05:14:00,52.0,-1.0,30.07,West,273,8.0,18.0,11,-99.99,,,-99.99,0.000000,,2013-02-24 13:14:00,
2013-02-24 05:24:00,52.0,-1.0,30.07,West,273,8.0,18.0,11,-99.99,,,-99.99,0.000000,,2013-02-24 13:24:00,
2013-02-24 05:33:00,51.0,0.0,30.09,SW,221,5.0,10.0,12,-99.99,,,-99.99,0.000000,,2013-02-24 13:33:00,
2013-02-24 05:43:00,51.0,0.0,30.09,SW,221,5.0,10.0,12,-99.99,,,-99.99,0.000000,,2013-02-24 13:43:00,
2013-02-24 05:52:00,51.0,0.0,30.09,SW,221,5.0,10.0,12,-99.99,,,-99.99,0.000000,,2013-02-24 13:52:00,
2013-02-24 06:13:00,50.0,1.0,30.10,SW,236,4.0,8.0,13,-99.99,,,-99.99,0.000000,,2013-02-24 14:13:00,
2013-02-24 06:23:00,49.0,1.0,30.10,SW,220,4.0,10.0,13,-99.99,,,-99.99,0.000000,,2013-02-24 14:23:00,
2013-02-24 06:32:00,49.0,1.0,30.10,SW,228,6.0,11.0,13,-99.99,,,-99.99,0.000000,,2013-02-24 14:32:00,
2013-02-24 06:43:00,49.0,1.0,30.10,SW,224,6.0,13.0,13,-99.99,,,-99.99,0.000000,,2013-02-24 14:43:00,
2013-02-24 06:52:00,49.0,0.0,30.10,SW,224,6.0,10.0,13,-99.99,,,-99.99,0.000000,,2013-02-24 14:52:00,
2013-02-24 07:02:00,48.0,1.0,30.11,SW,218,7.0,11.0,14,-99.99,,,-99.99,0.000000,,2013-02-24 15:02:00,
2013-02-24 07:12:00,48.0,1.0,30.11,SSW,211,7.0,12.0,14,-99.99,,,-99.99,10.000000,,2013-02-24 15:12:00,
2013-02-24 07:22:00,49.0,2.0,30.12,SW,223,6.0,12.0,14,-99.99,,,-99.99,20.000000,,2013-02-24 15:22:00,
2013-02-24 07:31:00,49.0,2.0,30.12,SW,223,6.0,12.0,14,-99.99,,,-99.99,20.000000,,2013-02-24 15:31:00,
2013-02-24 07:41:00,50.0,2.0,30.13,SW,230,4.0,9.0,13,-99.99,,,-99.99,120.000000,,2013-02-24 15:41:00,
2013-02-24 07:50:00,53.0,1.0,30.15,WSW,238,3.0,9.0,12,-99.99,,,-99.99,270.000000,,2013-02-24 15:50:00,
2013-02-24 07:52:00,51.0,2.0,30.13,SSW,208,5.0,8.0,13,-99.99,,,-99.99,160.000000,,2013-02-24 15:52:00,
2013-02-24 08:01:00,51.0,2.0,30.14,SW,229,4.0,9.0,13,-99.99,,,-99.99,200.000000,,2013-02-24 16:01:00,
2013-02-24 08:11:00,51.0,2.0,30.14,SW,229,4.0,9.0,13,-99.99,,,-99.99,200.000000,,2013-02-24 16:11:00,
2013-02-24 08:21:00,53.0,1.0,30.15,WSW,238,3.0,9.0,12,-99.99,,,-99.99,270.000000,,2013-02-24 16:21:00,
2013-02-24 08:31:00,53.0,1.0,30.15,WSW,238,3.0,9.0,12,-99.99,,,-99.99,270.000000,,2013-02-24 16:31:00,
2013-02-24 08:41:00,53.0,1.0,30.15,WSW,238,3.0,9.0,12,-99.99,,,-99.99,270.000000,,2013-02-24 16:41:00,
2013-02-24 09:00:00,54.0,4.0,30.17,WSW,256,5.0,14.0,13,-99.99,,,-99.99,520.000000,,2013-02-24 17:00:00,
2013-02-24 09:11:00,54.0,2.0,30.16,SSW,195,5.0,11.0,12,-99.99,,,-99.99,450.000000,,2013-02-24 17:11:00,
2013-02-24 09:21:00,53.0,4.0,30.16,West,268,10.0,16.0,13,-99.99,,,-99.99,490.000000,,2013-02-24 17:21:00,
2013-02-24 09:32:00,54.0,4.0,30.17,WSW,256,5.0,14.0,13,-99.99,,,-99.99,520.000000,,2013-02-24 17:32:00,
2013-02-24 09:41:00,54.0,4.0,30.17,WSW,256,5.0,14.0,13,-99.99,,,-99.99,520.000000,,2013-02-24 17:41:00,
2013-02-24 09:52:00,54.0,4.0,30.17,WSW,256,5.0,14.0,13,-99.99,,,-99.99,520.000000,,2013-02-24 17:52:00,
2013-02-24 10:22:00,56.0,4.0,30.18,WNW,301,3.0,9.0,12,-99.99,,,-99.99,660.000000,,2013-02-24 18:22:00,
2013-02-24 10:31:00,56.0,2.0,30.18,NNW,337,8.0,23.0,11,-99.99,,,-99.99,690.000000,,2013-02-24 18:31:00,
2013-02-24 10:42:00,56.0,2.0,30.18,West,265,5.0,14.0,11,-99.99,,,-99.99,710.000000,,2013-02-24 18:42:00,
2013-02-24 10:51:00,56.0,2.0,30.18,NW,324,8.0,19.0,11,-99.99,,,-99.99,730.000000,,2013-02-24 18:51:00,
2013-02-24 11:01:00,56.0,2.0,30.18,WSW,255,5.0,11.0,11,-99.99,,,-99.99,750.000000,,2013-02-24 19:01:00,
2013-02-24 11:11:00,56.0,3.0,30.18,WSW,250,8.0,16.0,11,-99.99,,,-99.99,770.000000,,2013-02-24 19:11:00,
2013-02-24 11:22:00,56.0,3.0,30.18,WSW,250,8.0,16.0,11,-99.99,,,-99.99,770.000000,,2013-02-24 19:22:00,
2013-02-24 11:31:00,58.0,3.0,30.18,NNW,328,9.0,17.0,11,-99.99,,,-99.99,800.000000,,2013-02-24 19:31:00,
2013-02-24 11:41:00,58.0,2.0,30.17,NNW,347,6.0,14.0,10,-99.99,,,-99.99,810.000000,,2013-02-24 19:41:00,
2013-02-24 11:51:00,58.0,2.0,30.17,West,262,6.0,22.0,10,-99.99,,,-99.99,820.000000,,2013-02-24 19:51:00,
2013-02-24 12:01:00,58.0,2.0,30.16,NNW,332,8.0,18.0,10,-99.99,,,-99.99,830.000000,,2013-02-24 20:01:00,
2013-02-24 12:11:00,59.0,2.0,30.16,North,357,8.0,18.0,10,-99.99,,,-99.99,840.000000,,2013-02-24 20:11:00,
2013-02-24 12:21:00,59.0,0.0,30.16,West,281,8.0,14.0,9,-99.99,,,-99.99,840.000000,,2013-02-24 20:21:00,
2013-02-24 12:31:00,59.0,0.0,30.16,West,281,8.0,14.0,9,-99.99,,,-99.99,840.000000,,2013-02-24 20:31:00,
2013-02-24 12:41:00,60.0,1.0,30.15,North,357,6.0,14.0,9,-99.99,,,-99.99,840.000000,,2013-02-24 20:41:00,
2013-02-24 12:52:00,60.0,1.0,30.15,North,357,6.0,14.0,9,-99.99,,,-99.99,840.000000,,2013-02-24 20:52:00,
2013-02-24 13:01:00,60.0,-1.0,30.14,North,358,8.0,20.0,8,-99.99,,,-99.99,840.000000,,2013-02-24 21:01:00,
2013-02-24 13:11:00,60.0,-1.0,30.14,North,357,8.0,18.0,8,-99.99,,,-99.99,820.000000,,2013-02-24 21:11:00,
2013-02-24 13:21:00,60.0,1.0,30.13,North,360,10.0,21.0,9,-99.99,,,-99.99,830.000000,,2013-02-24 21:21:00,
2013-02-24 13:32:00,60.0,-1.0,30.13,North,1,7.0,19.0,8,-99.99,,,-99.99,810.000000,,2013-02-24 21:32:00,
2013-02-24 13:41:00,60.0,-1.0,30.13,North,1,7.0,19.0,8,-99.99,,,-99.99,810.000000,,2013-02-24 21:41:00,
2013-02-24 13:52:00,60.0,-1.0,30.12,WSW,244,4.0,13.0,8,-99.99,,,-99.99,790.000000,,2013-02-24 21:52:00,
2013-02-24 14:01:00,61.0,0.0,30.12,NNW,340,6.0,14.0,8,-99.99,,,-99.99,760.000000,,2013-02-24 22:01:00,
2013-02-24 14:11:00,62.0,0.0,30.12,North,6,8.0,19.0,8,-99.99,,,-99.99,730.000000,,2013-02-24 22:11:00,
2013-02-24 14:21:00,62.0,0.0,30.11,North,359,8.0,17.0,8,-99.99,,,-99.99,710.000000,,2013-02-24 22:21:00,
2013-02-24 14:31:00,62.0,0.0,30.11,North,355,9.0,15.0,8,-99.99,,,-99.99,660.000000,,2013-02-24 22:31:00,
2013-02-24 14:41:00,61.0,0.0,30.11,North,352,8.0,19.0,8,-99.99,,,-99.99,670.000000,,2013-02-24 22:41:00,
2013-02-24 14:51:00,62.0,0.0,30.12,North,10,10.0,17.0,8,-99.99,,,-99.99,640.000000,,2013-02-24 22:51:00,
2013-02-24 15:01:00,62.0,0.0,30.11,North,351,10.0,17.0,8,-99.99,,,-99.99,620.000000,,2013-02-24 23:01:00,
2013-02-24 15:11:00,62.0,0.0,30.11,North,351,10.0,17.0,8,-99.99,,,-99.99,620.000000,,2013-02-24 23:11:00,
2013-02-24 15:21:00,62.0,0.0,30.11,North,1,12.0,18.0,8,-99.99,,,-99.99,560.000000,,2013-02-24 23:21:00,
2013-02-24 15:31:00,62.0,0.0,30.11,North,8,10.0,17.0,8,-99.99,,,-99.99,530.000000,,2013-02-24 23:31:00,
2013-02-24 15:41:00,62.0,0.0,30.11,North,2,6.0,15.0,8,-99.99,,,-99.99,480.000000,,2013-02-24 23:41:00,
2013-02-24 15:52:00,62.0,0.0,30.10,North,0,8.0,15.0,8,-99.99,,,-99.99,470.000000,,2013-02-24 23:52:00,
2013-02-24 16:01:00,61.0,0.0,30.10,North,357,9.0,17.0,8,-99.99,,,-99.99,450.000000,,2013-02-25 00:01:00,
2013-02-24 16:11:00,62.0,0.0,30.10,North,358,9.0,17.0,8,-99.99,,,-99.99,410.000000,,2013-02-25 00:11:00,
2013-02-24 16:21:00,61.0,0.0,30.10,North,2,8.0,16.0,8,-99.99,,,-99.99,380.000000,,2013-02-25 00:21:00,
2013-02-24 16:31:00,61.0,0.0,30.10,North,10,10.0,20.0,8,-99.99,,,-99.99,340.000000,,2013-02-25 00:31:00,
2013-02-24 16:41:00,61.0,-1.0,30.10,NNE,17,6.0,13.0,8,-99.99,,,-99.99,300.000000,,2013-02-25 00:41:00,
2013-02-24 16:51:00,62.0,0.0,30.10,North,358,3.0,9.0,8,-99.99,,,-99.99,260.000000,,2013-02-25 00:51:00,
2013-02-24 17:01:00,61.0,-1.0,30.10,North,355,4.0,11.0,8,-99.99,,,-99.99,130.000000,,2013-02-25 01:01:00,
2013-02-24 17:11:00,60.0,-1.0,30.10,NNW,344,2.0,7.0,8,-99.99,,,-99.99,30.000000,,2013-02-25 01:11:00,
2013-02-24 17:21:00,60.0,-1.0,30.10,NNW,344,2.0,7.0,8,-99.99,,,-99.99,30.000000,,2013-02-25 01:21:00,
2013-02-24 17:31:00,60.0,-2.0,30.10,North,3,3.0,13.0,8,-99.99,,,-99.99,30.000000,,2013-02-25 01:31:00,
2013-02-24 17:42:00,59.0,-2.0,30.11,NNW,341,4.0,10.0,8,-99.99,,,-99.99,20.000000,,2013-02-25 01:42:00,
2013-02-24 17:51:00,59.0,-2.0,30.11,WSW,251,3.0,7.0,8,-99.99,,,-99.99,10.000000,,2013-02-25 01:51:00,
2013-02-24 18:01:00,59.0,0.0,30.11,NW,320,3.0,8.0,9,-99.99,,,-99.99,10.000000,,2013-02-25 02:01:00,
2013-02-24 18:11:00,59.0,0.0,30.11,North,356,3.0,8.0,9,-99.99,,,-99.99,0.000000,,2013-02-25 02:11:00,
2013-02-24 18:21:00,59.0,0.0,30.12,NW,326,5.0,11.0,9,-99.99,,,-99.99,0.000000,,2013-02-25 02:21:00,
2013-02-24 18:31:00,58.0,0.0,30.13,NNW,335,4.0,10.0,9,-99.99,,,-99.99,0.000000,,2013-02-25 02:31:00,
2013-02-24 18:41:00,58.0,0.0,30.13,North,354,4.0,12.0,9,-99.99,,,-99.99,0.000000,,2013-02-25 02:41:00,
2013-02-24 18:52:00,58.0,0.0,30.13,North,354,4.0,12.0,9,-99.99,,,-99.99,0.000000,,2013-02-25 02:52:00,
2013-02-24 19:01:00,58.0,0.0,30.13,ESE,117,3.0,8.0,9,-99.99,,,-99.99,0.000000,,2013-02-25 03:01:00,
2013-02-24 19:11:00,58.0,-1.0,30.14,WSW,237,4.0,8.0,9,-99.99,,,-99.99,0.000000,,2013-02-25 03:11:00,
2013-02-24 19:21:00,58.0,-1.0,30.14,WSW,254,3.0,9.0,9,-99.99,,,-99.99,0.000000,,2013-02-25 03:21:00,
2013-02-24 19:30:00,56.0,0.0,30.14,SW,216,5.0,9.0,10,-99.99,,,-99.99,0.000000,,2013-02-25 03:30:00,
2013-02-24 19:31:00,57.0,1.0,30.14,SW,224,4.0,8.0,10,-99.99,,,-99.99,0.000000,,2013-02-25 03:31:00,
2013-02-24 19:41:00,56.0,0.0,30.14,SW,214,5.0,7.0,10,-99.99,,,-99.99,0.000000,,2013-02-25 03:41:00,
2013-02-24 19:51:00,56.0,0.0,30.14,SW,216,5.0,9.0,10,-99.99,,,-99.99,0.000000,,2013-02-25 03:51:00,
2013-02-24 20:01:00,56.0,0.0,30.14,SW,216,5.0,9.0,10,-99.99,,,-99.99,0.000000,,2013-02-25 04:01:00,
2013-02-24 20:11:00,56.0,0.0,30.14,SW,216,5.0,9.0,10,-99.99,,,-99.99,0.000000,,2013-02-25 04:11:00,
2013-02-24 20:21:00,56.0,0.0,30.14,SW,216,5.0,9.0,10,-99.99,,,-99.99,0.000000,,2013-02-25 04:21:00,
2013-02-24 20:51:00,55.0,1.0,30.15,SSW,204,7.0,9.0,11,-99.99,,,-99.99,0.000000,,2013-02-25 04:51:00,
2013-02-24 21:01:00,55.0,1.0,30.15,SSW,200,8.0,10.0,11,-99.99,,,-99.99,0.000000,,2013-02-25 05:01:00,
2013-02-24 21:11:00,55.0,2.0,30.16,SSW,196,9.0,12.0,11,-99.99,,,-99.99,0.000000,,2013-02-25 05:11:00,
2013-02-24 21:22:00,54.0,3.0,30.16,SSW,212,10.0,15.0,12,-99.99,,,-99.99,0.000000,,2013-02-25 05:22:00,
2013-02-24 21:30:00,54.0,3.0,30.17,SSW,203,10.0,14.0,12,-99.99,,,-99.99,0.000000,,2013-02-25 05:30:00,
2013-02-24 21:31:00,54.0,3.0,30.16,SSW,209,11.0,16.0,12,-99.99,,,-99.99,0.000000,,2013-02-25 05:31:00,
2013-02-24 21:41:00,54.0,1.0,30.17,SSW,210,11.0,16.0,11,-99.99,,,-99.99,0.000000,,2013-02-25 05:41:00,
2013-02-24 21:52:00,54.0,3.0,30.17,SSW,209,10.0,16.0,12,-99.99,,,-99.99,0.000000,,2013-02-25 05:52:00,
2013-02-24 22:02:00,54.0,3.0,30.17,SSW,203,10.0,14.0,12,-99.99,,,-99.99,0.000000,,2013-02-25 06:02:00,
2013-02-24 22:11:00,54.0,3.0,30.17,SSW,203,10.0,14.0,12,-99.99,,,-99.99,0.000000,,2013-02-25 06:11:00,
2013-02-24 22:21:00,54.0,3.0,30.17,SSW,203,10.0,14.0,12,-99.99,,,-99.99,0.000000,,2013-02-25 06:21:00,
2013-02-24 22:40:00,54.0,3.0,30.18,SSW,199,9.0,14.0,12,-99.99,,,-99.99,0.000000,,2013-02-25 06:40:00,
2013-02-24 22:51:00,54.0,3.0,30.18,SW,217,10.0,16.0,12,-99.99,,,-99.99,0.000000,,2013-02-25 06:51:00,
2013-02-24 23:01:00,55.0,1.0,30.18,SW,222,10.0,14.0,11,-99.99,,,-99.99,0.000000,,2013-02-25 07:01:00,
2013-02-24 23:11:00,54.0,3.0,30.18,SSW,199,9.0,14.0,12,-99.99,,,-99.99,0.000000,,2013-02-25 07:11:00,
2013-02-24 23:21:00,54.0,3.0,30.18,SSW,199,9.0,14.0,12,-99.99,,,-99.99,0.000000,,2013-02-25 07:21:00,
2013-02-24 23:31:00,54.0,3.0,30.18,SSW,199,9.0,14.0,12,-99.99,,,-99.99,0.000000,,2013-02-25 07:31:00,
2013-02-24 23:51:00,54.0,3.0,30.18,SSW,201,11.0,15.0,12,-99.99,,,-99.99,0.000000,,2013-02-25 07:51:00,